createdAt,value
2018-12-03T00:04:52.016Z,98911.09
2018-12-03T00:09:55.318Z,98901.70
2018-12-03T00:14:58.621Z,98903.73
2018-12-03T00:20:01.934Z,98900.86
2018-12-03T00:25:06.906Z,98910.26
2018-12-03T00:30:10.546Z,98908.91
2018-12-03T00:35:13.861Z,98913.61
2018-12-03T00:40:17.227Z,98913.39
2018-12-03T00:45:20.547Z,98914.80
2018-12-03T00:50:23.864Z,98918.31
2018-12-03T00:55:27.187Z,98919.47
2018-12-03T01:00:30.506Z,98919.27
2018-12-03T01:05:33.823Z,98921.08
2018-12-03T01:10:37.215Z,98919.41
2018-12-03T01:15:40.674Z,98920.31
2018-12-03T01:20:43.994Z,98915.82
2018-12-03T01:25:47.314Z,98901.30
2018-12-03T01:30:50.643Z,98899.15
2018-12-03T01:35:53.951Z,98900.72
2018-12-03T01:40:57.251Z,98899.52
2018-12-03T01:46:00.568Z,98899.30
2018-12-03T01:51:03.875Z,98894.26
2018-12-03T01:56:07.188Z,98895.33
2018-12-03T02:01:10.498Z,98888.87
2018-12-03T02:06:13.825Z,98905.73
2018-12-03T02:11:17.152Z,98895.59
2018-12-03T02:16:20.456Z,98905.67
2018-12-03T02:21:23.785Z,98893.34
2018-12-03T02:26:27.083Z,98901.89
2018-12-03T02:31:30.379Z,98903.30
2018-12-03T02:36:33.706Z,98899.59
2018-12-03T02:41:37.322Z,98890.66
2018-12-03T02:46:40.619Z,98892.49
2018-12-03T02:51:43.926Z,98894.65
2018-12-03T02:56:47.232Z,98893.25
2018-12-03T03:01:50.557Z,98890.06
2018-12-03T03:06:53.866Z,98883.86
2018-12-03T03:11:57.174Z,98882.86
2018-12-03T03:17:00.481Z,98884.58
2018-12-03T03:22:03.844Z,98887.73
2018-12-03T03:27:07.210Z,98881.52
2018-12-03T03:32:10.542Z,98865.44
2018-12-03T03:37:13.872Z,98873.14
2018-12-03T03:42:17.191Z,98869.95
2018-12-03T03:47:20.528Z,98865.41
2018-12-03T03:52:23.855Z,98861.41
2018-12-03T03:57:27.167Z,98870.11
2018-12-03T04:02:30.489Z,98875.81
2018-12-03T04:07:33.799Z,98868.42
2018-12-03T04:12:37.115Z,98868.42
2018-12-03T04:17:40.437Z,98866.25
2018-12-03T04:22:44.910Z,98856.86
2018-12-03T04:27:48.731Z,98862.72
2018-12-03T04:32:52.962Z,98855.99
2018-12-03T04:37:56.289Z,98853.00
2018-12-03T04:42:59.596Z,98852.40
2018-12-03T04:48:02.896Z,98848.72
2018-12-03T04:53:06.208Z,98843.93
2018-12-03T04:58:09.519Z,98853.02
2018-12-03T05:03:12.831Z,98859.02
2018-12-03T05:08:16.138Z,98854.94
2018-12-03T05:13:19.442Z,98853.94
2018-12-03T05:18:22.765Z,98854.94
2018-12-03T05:23:26.075Z,98856.28
2018-12-03T05:28:29.362Z,98850.57
2018-12-03T05:33:32.687Z,98857.78
2018-12-03T05:38:36.028Z,98849.02
2018-12-03T05:43:39.325Z,98859.11
2018-12-03T05:48:42.637Z,98864.95
2018-12-03T05:53:45.960Z,98871.30
2018-12-03T05:58:49.250Z,98871.80
2018-12-03T06:03:52.550Z,98873.64
2018-12-03T06:08:55.848Z,98872.46
2018-12-03T06:13:59.183Z,98873.98
2018-12-03T06:19:02.496Z,98866.60
2018-12-03T06:24:05.958Z,98870.28
2018-12-03T06:29:09.276Z,98873.45
2018-12-03T06:34:12.591Z,98872.95
2018-12-03T06:39:15.903Z,98881.13
2018-12-03T06:44:19.214Z,98868.59
2018-12-03T06:49:22.518Z,98878.45
2018-12-03T06:54:25.834Z,98876.77
2018-12-03T06:59:29.134Z,98881.63
2018-12-03T07:04:32.453Z,98879.45
2018-12-03T07:09:35.764Z,98875.58
2018-12-03T07:14:39.089Z,98873.74
2018-12-03T07:19:42.418Z,98869.38
2018-12-03T07:24:45.864Z,98862.33
2018-12-03T07:29:52.901Z,98867.60
2018-12-03T07:34:52.539Z,98886.66
2018-12-03T07:39:55.844Z,98896.48
2018-12-03T07:44:59.168Z,98896.37
2018-12-03T07:50:02.569Z,98900.77
2018-12-03T07:55:09.095Z,98907.59
2018-12-03T08:00:15.267Z,98905.28
2018-12-03T08:05:18.739Z,98909.77
2018-12-03T08:10:22.083Z,98915.44
2018-12-03T08:15:25.387Z,98906.75
2018-12-03T08:20:34.980Z,98899.09
2018-12-03T08:25:38.744Z,98889.75
2018-12-03T08:30:42.060Z,98877.39
2018-12-03T08:35:45.379Z,98883.39
2018-12-03T08:40:48.691Z,98901.73
2018-12-03T08:45:56.838Z,98909.80
2018-12-03T08:51:00.126Z,98907.50
2018-12-03T08:56:03.434Z,98905.59
2018-12-03T09:01:16.434Z,98910.95
2018-12-03T09:06:19.777Z,98905.28
2018-12-03T09:11:24.053Z,98905.25
2018-12-03T09:16:27.350Z,98914.52
2018-12-03T09:21:31.284Z,98916.09
2018-12-03T09:26:39.498Z,98918.43
2018-12-03T09:31:42.800Z,98917.69
2018-12-03T09:36:46.115Z,98915.56
2018-12-03T09:41:49.751Z,98915.81
2018-12-03T09:46:53.042Z,98917.44
2018-12-03T09:51:56.347Z,98932.89
2018-12-03T09:56:59.689Z,98931.55
2018-12-03T10:02:03.112Z,98937.26
2018-12-03T10:07:06.531Z,98932.43
2018-12-03T10:12:10.480Z,98934.42
2018-12-03T10:17:13.886Z,98936.84
2018-12-03T10:22:17.571Z,98927.88
2018-12-03T10:27:20.935Z,98920.47
2018-12-03T10:32:24.322Z,98918.35
2018-12-03T10:37:27.812Z,98922.19
2018-12-03T10:42:31.126Z,98910.24
2018-12-03T10:47:34.424Z,98916.45
2018-12-03T10:52:38.530Z,98909.90
2018-12-03T10:57:43.335Z,98919.97
2018-12-03T11:02:52.588Z,98919.41
2018-12-03T11:07:55.942Z,98910.27
2018-12-03T11:12:59.426Z,98900.22
2018-12-03T11:18:03.816Z,98896.27
2018-12-03T11:23:07.856Z,98889.28
2018-12-03T11:28:13.420Z,98876.88
2018-12-03T11:33:22.854Z,98874.55
2018-12-03T11:38:31.303Z,98879.45
2018-12-03T11:43:34.607Z,98880.25
2018-12-03T11:48:37.903Z,98877.61
2018-12-03T11:53:41.194Z,98869.56
2018-12-03T11:58:44.491Z,98866.88
2018-12-03T12:03:47.798Z,98871.06
2018-12-03T12:08:51.116Z,98875.20
2018-12-03T12:13:54.433Z,98877.08
2018-12-03T12:18:57.735Z,98877.08
2018-12-03T12:24:01.055Z,98876.42
2018-12-03T12:29:04.452Z,98877.42
2018-12-03T12:34:07.791Z,98870.97
2018-12-03T12:39:11.145Z,98858.47
2018-12-03T12:44:14.458Z,98863.64
2018-12-03T12:49:17.761Z,98851.61
2018-12-03T12:54:21.090Z,98868.03
2018-12-03T12:59:24.404Z,98859.66
2018-12-03T13:04:27.739Z,98852.64
2018-12-03T13:09:31.031Z,98857.72
2018-12-03T13:14:34.330Z,98851.86
2018-12-03T13:19:37.630Z,98854.95
2018-12-03T13:24:40.943Z,98856.63
2018-12-03T13:29:44.253Z,98857.81
2018-12-03T13:34:47.539Z,98850.27
2018-12-03T13:39:50.875Z,98842.57
2018-12-03T13:44:54.232Z,98840.70
2018-12-03T13:49:57.535Z,98846.25
2018-12-03T13:55:00.866Z,98838.67
2018-12-03T14:00:05.038Z,98844.81
2018-12-03T14:05:09.876Z,98840.20
2018-12-03T14:10:56.906Z,98854.10
2018-12-03T14:18:12.326Z,98866.11
2018-12-03T14:23:18.605Z,98892.69
2018-12-03T14:28:21.919Z,98882.69
2018-12-03T14:33:25.224Z,98898.00
2018-12-03T14:38:28.543Z,98906.38
2018-12-03T14:43:31.876Z,98912.67
2018-12-03T14:48:35.162Z,98904.78
2018-12-03T14:53:38.480Z,98907.81
2018-12-03T14:58:41.787Z,98912.64
2018-12-03T15:03:45.153Z,98908.27
2018-12-03T15:08:48.523Z,98904.03
2018-12-03T15:13:51.851Z,98910.61
2018-12-03T15:18:55.387Z,98908.99
2018-12-03T15:23:58.742Z,98904.47
2018-12-03T15:29:02.049Z,98900.36
2018-12-03T15:34:05.368Z,98886.86
2018-12-03T15:39:09.790Z,98886.14
2018-12-03T15:44:43.174Z,98890.58
2018-12-03T15:49:46.487Z,98898.84
2018-12-03T15:54:49.798Z,98900.36
2018-12-03T15:59:53.115Z,98894.56
2018-12-03T16:04:56.436Z,98895.91
2018-12-03T16:09:59.741Z,98899.11
2018-12-03T16:15:03.167Z,98905.66
2018-12-03T16:20:08.248Z,98905.13
2018-12-03T16:25:11.566Z,98898.11
2018-12-03T16:30:18.955Z,98897.83
2018-12-03T16:35:22.306Z,98893.96
2018-12-03T16:40:25.627Z,98890.63
2018-12-03T16:45:29.019Z,98886.95
2018-12-03T16:50:32.366Z,98888.21
2018-12-03T16:55:35.694Z,98889.66
2018-12-03T17:00:38.990Z,98908.77
2018-12-03T17:05:42.296Z,98901.22
2018-12-03T17:10:45.599Z,98907.09
2018-12-03T17:15:48.902Z,98896.91
2018-12-03T17:21:14.715Z,98898.97
2018-12-03T17:26:18.021Z,98897.72
2018-12-03T17:31:21.362Z,98899.59
2018-12-03T17:36:24.779Z,98901.84
2018-12-03T17:41:28.103Z,98917.56
2018-12-03T17:46:31.449Z,98897.81
2018-12-03T17:51:34.743Z,98882.91
2018-12-03T17:56:38.090Z,98887.13
2018-12-03T18:01:41.414Z,98889.75
2018-12-03T18:06:45.518Z,98890.74
2018-12-03T18:11:48.851Z,98895.17
2018-12-03T18:16:52.170Z,98887.84
2018-12-03T18:21:55.466Z,98893.89
2018-12-03T18:26:58.766Z,98896.41
2018-12-03T18:32:02.150Z,98881.63
2018-12-03T18:37:05.471Z,98886.54
2018-12-03T18:42:08.775Z,98887.55
2018-12-03T18:47:12.107Z,98876.92
2018-12-03T18:52:16.575Z,98865.42
2018-12-03T18:57:19.917Z,98869.25
2018-12-03T19:02:23.242Z,98872.48
2018-12-03T19:07:26.556Z,98869.79
2018-12-03T19:12:29.890Z,98869.28
2018-12-03T19:17:33.382Z,98868.45
2018-12-03T19:22:36.690Z,98877.52
2018-12-03T19:27:40.019Z,98872.11
2018-12-03T19:32:43.335Z,98866.39
2018-12-03T19:37:46.644Z,98863.03
2018-12-03T19:42:50.207Z,98873.14
2018-12-03T19:47:53.527Z,98868.61
2018-12-03T19:52:56.846Z,98873.32
2018-12-03T19:58:11.473Z,98867.44
2018-12-03T20:03:14.804Z,98867.91
2018-12-03T20:08:18.131Z,98863.20
2018-12-03T20:13:21.458Z,98861.94
2018-12-03T20:18:24.786Z,98852.98
2018-12-03T20:23:34.494Z,98862.38
2018-12-03T20:28:49.879Z,98849.73
2018-12-03T20:34:07.779Z,98843.98
2018-12-03T20:39:50.034Z,98852.19
2018-12-03T20:45:02.308Z,98856.05
2018-12-03T20:50:48.785Z,98856.18
2018-12-03T20:55:52.221Z,98860.42
2018-12-03T21:00:55.707Z,98853.16
2018-12-03T21:05:59.078Z,98854.83
2018-12-03T21:11:02.927Z,98866.91
2018-12-03T21:16:06.559Z,98873.95
2018-12-03T21:21:11.031Z,98871.91
2018-12-03T21:26:14.338Z,98876.94
2018-12-03T21:31:17.663Z,98879.45
2018-12-03T21:36:21.007Z,98877.78
2018-12-03T21:41:24.319Z,98881.17
2018-12-03T21:46:27.632Z,98888.35
2018-12-03T21:51:30.939Z,98885.00
2018-12-03T21:56:34.263Z,98882.48
2018-12-03T22:01:37.611Z,98898.53
2018-12-03T22:06:40.921Z,98896.30
2018-12-03T22:11:44.215Z,98904.53
2018-12-03T22:16:47.524Z,98909.91
2018-12-03T22:21:50.838Z,98916.11
2018-12-03T22:26:54.142Z,98923.48
2018-12-03T22:31:57.470Z,98929.81
2018-12-03T22:37:00.779Z,98930.20
2018-12-03T22:42:04.147Z,98930.02
2018-12-03T22:47:07.515Z,98928.81
2018-12-03T22:52:10.837Z,98921.92
2018-12-03T22:57:14.610Z,98920.75
2018-12-03T23:02:17.917Z,98930.48
2018-12-03T23:07:21.255Z,98927.97
2018-12-03T23:12:25.077Z,98940.55
2018-12-03T23:17:28.555Z,98944.91
2018-12-03T23:22:31.886Z,98950.10
2018-12-03T23:27:35.336Z,98951.63
2018-12-03T23:32:38.639Z,98955.98
2018-12-03T23:37:41.926Z,98968.73
2018-12-03T23:42:45.241Z,98964.53
2018-12-03T23:47:48.548Z,98973.93
2018-12-03T23:52:51.847Z,98965.72
2018-12-03T23:57:55.167Z,98967.22
